sensor_id;sensor_type;location;lat;lon;timestamp;P1;durP1;ratioP1;P2;durP2;ratioP2
73599;SDS011;61877;48.246;9.220;2024-01-11T00:01:23;45.93;;;19.00;;
73599;SDS011;61877;48.246;9.220;2024-01-11T00:03:48;47.10;;;18.45;;
73599;SDS011;61877;48.246;9.220;2024-01-11T00:06:13;44.97;;;18.47;;
73599;SDS011;61877;48.246;9.220;2024-01-11T00:08:40;41.50;;;17.73;;
73599;SDS011;61877;48.246;9.220;2024-01-11T00:11:05;41.85;;;17.45;;
73599;SDS011;61877;48.246;9.220;2024-01-11T00:13:31;40.30;;;16.23;;
73599;SDS011;61877;48.246;9.220;2024-01-11T00:15:56;43.37;;;17.47;;
73599;SDS011;61877;48.246;9.220;2024-01-11T00:18:21;40.17;;;16.47;;
73599;SDS011;61877;48.246;9.220;2024-01-11T00:20:47;41.17;;;16.30;;
73599;SDS011;61877;48.246;9.220;2024-01-11T00:23:12;38.13;;;16.27;;
73599;SDS011;61877;48.246;9.220;2024-01-11T00:25:39;40.40;;;16.52;;
73599;SDS011;61877;48.246;9.220;2024-01-11T00:28:04;37.47;;;16.17;;
73599;SDS011;61877;48.246;9.220;2024-01-11T00:30:30;41.40;;;16.20;;
73599;SDS011;61877;48.246;9.220;2024-01-11T00:32:55;46.90;;;17.40;;
73599;SDS011;61877;48.246;9.220;2024-01-11T00:35:21;41.47;;;16.63;;
73599;SDS011;61877;48.246;9.220;2024-01-11T00:37:46;43.70;;;17.43;;
73599;SDS011;61877;48.246;9.220;2024-01-11T00:40:11;42.33;;;18.90;;
73599;SDS011;61877;48.246;9.220;2024-01-11T00:42:38;40.23;;;17.30;;
73599;SDS011;61877;48.246;9.220;2024-01-11T00:45:04;37.13;;;15.15;;
73599;SDS011;61877;48.246;9.220;2024-01-11T00:47:29;41.15;;;16.20;;
73599;SDS011;61877;48.246;9.220;2024-01-11T00:49:55;43.70;;;16.67;;
73599;SDS011;61877;48.246;9.220;2024-01-11T00:52:20;38.90;;;16.80;;
73599;SDS011;61877;48.246;9.220;2024-01-11T00:54:46;41.07;;;16.53;;
73599;SDS011;61877;48.246;9.220;2024-01-11T00:57:11;40.20;;;16.67;;
73599;SDS011;61877;48.246;9.220;2024-01-11T00:59:39;43.93;;;16.17;;
73599;SDS011;61877;48.246;9.220;2024-01-11T01:02:04;45.40;;;17.55;;
73599;SDS011;61877;48.246;9.220;2024-01-11T01:04:30;40.53;;;16.03;;
73599;SDS011;61877;48.246;9.220;2024-01-11T01:06:55;36.47;;;17.23;;
73599;SDS011;61877;48.246;9.220;2024-01-11T01:09:20;36.60;;;15.60;;
73599;SDS011;61877;48.246;9.220;2024-01-11T01:11:46;36.77;;;15.63;;
73599;SDS011;61877;48.246;9.220;2024-01-11T01:14:11;42.40;;;16.03;;
73599;SDS011;61877;48.246;9.220;2024-01-11T01:16:38;40.30;;;15.98;;
73599;SDS011;61877;48.246;9.220;2024-01-11T01:19:03;37.20;;;15.43;;
73599;SDS011;61877;48.246;9.220;2024-01-11T01:21:28;36.33;;;15.10;;
73599;SDS011;61877;48.246;9.220;2024-01-11T01:23:54;34.87;;;16.20;;
73599;SDS011;61877;48.246;9.220;2024-01-11T01:26:19;37.17;;;15.23;;
73599;SDS011;61877;48.246;9.220;2024-01-11T01:28:44;36.03;;;15.80;;
73599;SDS011;61877;48.246;9.220;2024-01-11T01:31:10;39.27;;;15.63;;
73599;SDS011;61877;48.246;9.220;2024-01-11T01:33:36;39.23;;;15.83;;
73599;SDS011;61877;48.246;9.220;2024-01-11T01:36:02;42.70;;;16.38;;
73599;SDS011;61877;48.246;9.220;2024-01-11T01:38:28;36.60;;;17.15;;
73599;SDS011;61877;48.246;9.220;2024-01-11T01:40:53;38.53;;;15.67;;
73599;SDS011;61877;48.246;9.220;2024-01-11T01:43:18;38.63;;;16.83;;
73599;SDS011;61877;48.246;9.220;2024-01-11T01:45:44;41.10;;;16.17;;
73599;SDS011;61877;48.246;9.220;2024-01-11T01:48:09;39.47;;;16.63;;
73599;SDS011;61877;48.246;9.220;2024-01-11T01:50:36;40.17;;;16.17;;
73599;SDS011;61877;48.246;9.220;2024-01-11T01:53:01;37.63;;;14.88;;
73599;SDS011;61877;48.246;9.220;2024-01-11T01:55:27;37.17;;;14.67;;
73599;SDS011;61877;48.246;9.220;2024-01-11T01:57:54;31.42;;;14.18;;
73599;SDS011;61877;48.246;9.220;2024-01-11T02:00:20;34.58;;;14.85;;
73599;SDS011;61877;48.246;9.220;2024-01-11T02:02:46;31.20;;;13.57;;
73599;SDS011;61877;48.246;9.220;2024-01-11T02:05:15;34.15;;;14.48;;
73599;SDS011;61877;48.246;9.220;2024-01-11T02:07:43;35.45;;;15.57;;
73599;SDS011;61877;48.246;9.220;2024-01-11T02:10:09;33.85;;;15.45;;
73599;SDS011;61877;48.246;9.220;2024-01-11T02:12:35;35.20;;;15.17;;
73599;SDS011;61877;48.246;9.220;2024-01-11T02:15:01;35.58;;;14.85;;
73599;SDS011;61877;48.246;9.220;2024-01-11T02:17:26;35.10;;;14.43;;
73599;SDS011;61877;48.246;9.220;2024-01-11T02:19:52;37.60;;;15.10;;
73599;SDS011;61877;48.246;9.220;2024-01-11T02:22:19;38.37;;;17.10;;
73599;SDS011;61877;48.246;9.220;2024-01-11T02:24:48;40.80;;;16.77;;
73599;SDS011;61877;48.246;9.220;2024-01-11T02:27:13;42.45;;;18.00;;
73599;SDS011;61877;48.246;9.220;2024-01-11T02:29:39;37.80;;;16.87;;
73599;SDS011;61877;48.246;9.220;2024-01-11T02:32:04;36.43;;;15.70;;
73599;SDS011;61877;48.246;9.220;2024-01-11T02:34:29;38.00;;;15.10;;
73599;SDS011;61877;48.246;9.220;2024-01-11T02:36:55;34.20;;;14.03;;
73599;SDS011;61877;48.246;9.220;2024-01-11T02:39:22;33.50;;;13.65;;
73599;SDS011;61877;48.246;9.220;2024-01-11T02:41:49;32.63;;;13.50;;
73599;SDS011;61877;48.246;9.220;2024-01-11T02:44:16;32.00;;;14.43;;
73599;SDS011;61877;48.246;9.220;2024-01-11T02:46:41;33.00;;;14.23;;
73599;SDS011;61877;48.246;9.220;2024-01-11T02:49:06;35.00;;;14.23;;
73599;SDS011;61877;48.246;9.220;2024-01-11T02:51:32;32.87;;;13.33;;
73599;SDS011;61877;48.246;9.220;2024-01-11T02:53:57;33.27;;;14.27;;
73599;SDS011;61877;48.246;9.220;2024-01-11T02:56:23;36.87;;;14.83;;
73599;SDS011;61877;48.246;9.220;2024-01-11T02:58:49;36.30;;;14.82;;
73599;SDS011;61877;48.246;9.220;2024-01-11T03:01:15;34.57;;;14.47;;
73599;SDS011;61877;48.246;9.220;2024-01-11T03:03:40;35.15;;;14.63;;
73599;SDS011;61877;48.246;9.220;2024-01-11T03:06:05;33.07;;;13.77;;
73599;SDS011;61877;48.246;9.220;2024-01-11T03:08:31;33.67;;;14.00;;
73599;SDS011;61877;48.246;9.220;2024-01-11T03:10:56;34.00;;;13.70;;
73599;SDS011;61877;48.246;9.220;2024-01-11T03:13:22;32.08;;;14.45;;
73599;SDS011;61877;48.246;9.220;2024-01-11T03:15:49;29.87;;;14.33;;
73599;SDS011;61877;48.246;9.220;2024-01-11T03:18:15;33.42;;;14.65;;
73599;SDS011;61877;48.246;9.220;2024-01-11T03:20:40;30.30;;;13.53;;
73599;SDS011;61877;48.246;9.220;2024-01-11T03:23:05;37.90;;;14.65;;
73599;SDS011;61877;48.246;9.220;2024-01-11T03:25:31;31.83;;;14.87;;
73599;SDS011;61877;48.246;9.220;2024-01-11T03:27:57;30.03;;;13.50;;
73599;SDS011;61877;48.246;9.220;2024-01-11T03:30:23;31.05;;;14.55;;
73599;SDS011;61877;48.246;9.220;2024-01-11T03:32:49;35.53;;;14.27;;
73599;SDS011;61877;48.246;9.220;2024-01-11T03:35:15;33.97;;;14.30;;
73599;SDS011;61877;48.246;9.220;2024-01-11T03:37:40;32.90;;;15.37;;
73599;SDS011;61877;48.246;9.220;2024-01-11T03:40:06;37.23;;;15.07;;
73599;SDS011;61877;48.246;9.220;2024-01-11T03:42:32;36.90;;;15.70;;
73599;SDS011;61877;48.246;9.220;2024-01-11T03:44:57;33.67;;;15.13;;
73599;SDS011;61877;48.246;9.220;2024-01-11T03:47:23;34.17;;;15.13;;
73599;SDS011;61877;48.246;9.220;2024-01-11T03:49:49;29.93;;;13.90;;
73599;SDS011;61877;48.246;9.220;2024-01-11T03:52:15;30.43;;;14.13;;
73599;SDS011;61877;48.246;9.220;2024-01-11T03:54:40;31.47;;;14.37;;
73599;SDS011;61877;48.246;9.220;2024-01-11T03:57:05;31.27;;;14.70;;
73599;SDS011;61877;48.246;9.220;2024-01-11T03:59:31;31.33;;;14.53;;
73599;SDS011;61877;48.246;9.220;2024-01-11T04:01:56;33.17;;;13.60;;
73599;SDS011;61877;48.246;9.220;2024-01-11T04:04:22;33.80;;;15.00;;
73599;SDS011;61877;48.246;9.220;2024-01-11T04:06:49;33.43;;;14.80;;
73599;SDS011;61877;48.246;9.220;2024-01-11T04:09:14;35.40;;;14.77;;
73599;SDS011;61877;48.246;9.220;2024-01-11T04:11:40;32.87;;;14.63;;
73599;SDS011;61877;48.246;9.220;2024-01-11T04:14:05;34.77;;;15.00;;
73599;SDS011;61877;48.246;9.220;2024-01-11T04:16:30;31.17;;;14.45;;
73599;SDS011;61877;48.246;9.220;2024-01-11T04:18:56;39.53;;;22.97;;
73599;SDS011;61877;48.246;9.220;2024-01-11T04:21:21;49.40;;;27.20;;
73599;SDS011;61877;48.246;9.220;2024-01-11T04:23:48;37.60;;;18.30;;
73599;SDS011;61877;48.246;9.220;2024-01-11T04:26:14;33.40;;;14.95;;
73599;SDS011;61877;48.246;9.220;2024-01-11T04:28:39;34.60;;;14.07;;
73599;SDS011;61877;48.246;9.220;2024-01-11T04:31:05;29.33;;;12.73;;
73599;SDS011;61877;48.246;9.220;2024-01-11T04:33:30;26.83;;;13.20;;
73599;SDS011;61877;48.246;9.220;2024-01-11T04:35:55;29.67;;;13.27;;
73599;SDS011;61877;48.246;9.220;2024-01-11T04:38:21;35.33;;;14.03;;
73599;SDS011;61877;48.246;9.220;2024-01-11T04:40:47;34.00;;;13.80;;
73599;SDS011;61877;48.246;9.220;2024-01-11T04:43:13;30.00;;;14.13;;
73599;SDS011;61877;48.246;9.220;2024-01-11T04:45:38;32.37;;;14.37;;
73599;SDS011;61877;48.246;9.220;2024-01-11T04:48:04;33.15;;;14.60;;
73599;SDS011;61877;48.246;9.220;2024-01-11T04:50:29;35.27;;;15.10;;
73599;SDS011;61877;48.246;9.220;2024-01-11T04:52:55;31.40;;;14.32;;
73599;SDS011;61877;48.246;9.220;2024-01-11T04:55:20;33.17;;;14.63;;
73599;SDS011;61877;48.246;9.220;2024-01-11T04:57:47;32.50;;;14.27;;
73599;SDS011;61877;48.246;9.220;2024-01-11T05:00:12;34.00;;;14.48;;
73599;SDS011;61877;48.246;9.220;2024-01-11T05:02:38;29.30;;;13.27;;
73599;SDS011;61877;48.246;9.220;2024-01-11T05:05:04;34.30;;;15.23;;
73599;SDS011;61877;48.246;9.220;2024-01-11T05:07:29;31.87;;;14.30;;
73599;SDS011;61877;48.246;9.220;2024-01-11T05:09:54;34.03;;;15.20;;
73599;SDS011;61877;48.246;9.220;2024-01-11T05:12:20;30.75;;;14.63;;
73599;SDS011;61877;48.246;9.220;2024-01-11T05:14:47;30.20;;;13.40;;
73599;SDS011;61877;48.246;9.220;2024-01-11T05:17:12;29.85;;;13.38;;
73599;SDS011;61877;48.246;9.220;2024-01-11T05:19:38;28.60;;;13.43;;
73599;SDS011;61877;48.246;9.220;2024-01-11T05:22:03;31.40;;;13.73;;
73599;SDS011;61877;48.246;9.220;2024-01-11T05:24:29;31.97;;;14.30;;
73599;SDS011;61877;48.246;9.220;2024-01-11T05:26:54;34.43;;;14.20;;
73599;SDS011;61877;48.246;9.220;2024-01-11T05:29:19;38.77;;;14.97;;
73599;SDS011;61877;48.246;9.220;2024-01-11T05:31:46;34.47;;;15.27;;
73599;SDS011;61877;48.246;9.220;2024-01-11T05:34:11;35.75;;;15.63;;
73599;SDS011;61877;48.246;9.220;2024-01-11T05:36:37;33.70;;;14.70;;
73599;SDS011;61877;48.246;9.220;2024-01-11T05:39:02;29.50;;;13.30;;
73599;SDS011;61877;48.246;9.220;2024-01-11T05:41:27;29.25;;;13.27;;
73599;SDS011;61877;48.246;9.220;2024-01-11T05:43:53;26.93;;;13.13;;
73599;SDS011;61877;48.246;9.220;2024-01-11T05:46:18;27.37;;;12.70;;
73599;SDS011;61877;48.246;9.220;2024-01-11T05:48:45;28.90;;;13.27;;
73599;SDS011;61877;48.246;9.220;2024-01-11T05:51:10;29.35;;;13.45;;
73599;SDS011;61877;48.246;9.220;2024-01-11T05:53:35;31.13;;;12.63;;
73599;SDS011;61877;48.246;9.220;2024-01-11T05:56:01;27.90;;;12.53;;
73599;SDS011;61877;48.246;9.220;2024-01-11T05:58:26;30.30;;;14.10;;
73599;SDS011;61877;48.246;9.220;2024-01-11T06:00:52;31.00;;;14.13;;
73599;SDS011;61877;48.246;9.220;2024-01-11T06:03:17;30.80;;;14.13;;
73599;SDS011;61877;48.246;9.220;2024-01-11T06:05:44;33.43;;;14.87;;
73599;SDS011;61877;48.246;9.220;2024-01-11T06:08:09;33.85;;;15.48;;
73599;SDS011;61877;48.246;9.220;2024-01-11T06:10:34;32.63;;;15.40;;
73599;SDS011;61877;48.246;9.220;2024-01-11T06:13:00;35.57;;;15.63;;
73599;SDS011;61877;48.246;9.220;2024-01-11T06:15:25;32.80;;;15.10;;
73599;SDS011;61877;48.246;9.220;2024-01-11T06:17:50;34.20;;;14.13;;
73599;SDS011;61877;48.246;9.220;2024-01-11T06:20:16;35.23;;;14.53;;
73599;SDS011;61877;48.246;9.220;2024-01-11T06:22:42;33.10;;;13.90;;
73599;SDS011;61877;48.246;9.220;2024-01-11T06:25:08;28.52;;;12.63;;
73599;SDS011;61877;48.246;9.220;2024-01-11T06:27:33;32.77;;;14.03;;
73599;SDS011;61877;48.246;9.220;2024-01-11T06:29:58;30.83;;;13.20;;
73599;SDS011;61877;48.246;9.220;2024-01-11T06:32:24;30.87;;;13.53;;
73599;SDS011;61877;48.246;9.220;2024-01-11T06:34:49;31.27;;;13.35;;
73599;SDS011;61877;48.246;9.220;2024-01-11T06:37:15;31.10;;;14.20;;
73599;SDS011;61877;48.246;9.220;2024-01-11T06:39:41;33.27;;;15.00;;
73599;SDS011;61877;48.246;9.220;2024-01-11T06:42:07;30.13;;;14.40;;
73599;SDS011;61877;48.246;9.220;2024-01-11T06:44:32;27.73;;;14.53;;
73599;SDS011;61877;48.246;9.220;2024-01-11T06:46:57;31.83;;;14.90;;
73599;SDS011;61877;48.246;9.220;2024-01-11T06:49:23;33.33;;;15.37;;
73599;SDS011;61877;48.246;9.220;2024-01-11T06:51:48;34.38;;;14.55;;
73599;SDS011;61877;48.246;9.220;2024-01-11T06:54:13;32.07;;;13.97;;
73599;SDS011;61877;48.246;9.220;2024-01-11T06:56:40;34.67;;;14.70;;
73599;SDS011;61877;48.246;9.220;2024-01-11T06:59:05;31.52;;;14.18;;
73599;SDS011;61877;48.246;9.220;2024-01-11T07:01:31;31.60;;;14.03;;
73599;SDS011;61877;48.246;9.220;2024-01-11T07:03:57;33.83;;;13.82;;
73599;SDS011;61877;48.246;9.220;2024-01-11T07:06:22;29.50;;;13.27;;
73599;SDS011;61877;48.246;9.220;2024-01-11T07:08:48;30.17;;;13.93;;
73599;SDS011;61877;48.246;9.220;2024-01-11T07:11:13;32.03;;;14.67;;
73599;SDS011;61877;48.246;9.220;2024-01-11T07:13:40;29.50;;;13.88;;
73599;SDS011;61877;48.246;9.220;2024-01-11T07:16:05;29.07;;;14.23;;
73599;SDS011;61877;48.246;9.220;2024-01-11T07:18:31;38.35;;;15.90;;
73599;SDS011;61877;48.246;9.220;2024-01-11T07:20:56;38.77;;;15.73;;
73599;SDS011;61877;48.246;9.220;2024-01-11T07:23:22;39.13;;;17.37;;
73599;SDS011;61877;48.246;9.220;2024-01-11T07:25:47;35.05;;;15.25;;
73599;SDS011;61877;48.246;9.220;2024-01-11T07:28:12;32.07;;;15.60;;
73599;SDS011;61877;48.246;9.220;2024-01-11T07:30:39;33.97;;;15.90;;
73599;SDS011;61877;48.246;9.220;2024-01-11T07:33:04;35.83;;;16.13;;
73599;SDS011;61877;48.246;9.220;2024-01-11T07:35:30;30.73;;;13.43;;
73599;SDS011;61877;48.246;9.220;2024-01-11T07:37:55;34.13;;;15.60;;
73599;SDS011;61877;48.246;9.220;2024-01-11T07:40:21;33.77;;;14.03;;
73599;SDS011;61877;48.246;9.220;2024-01-11T07:42:46;33.60;;;14.77;;
73599;SDS011;61877;48.246;9.220;2024-01-11T07:45:14;36.80;;;17.17;;
73599;SDS011;61877;48.246;9.220;2024-01-11T07:47:42;33.17;;;15.13;;
73599;SDS011;61877;48.246;9.220;2024-01-11T07:50:08;33.60;;;15.50;;
73599;SDS011;61877;48.246;9.220;2024-01-11T07:52:34;37.30;;;16.38;;
73599;SDS011;61877;48.246;9.220;2024-01-11T07:54:59;38.10;;;16.90;;
73599;SDS011;61877;48.246;9.220;2024-01-11T07:57:24;39.60;;;17.07;;
73599;SDS011;61877;48.246;9.220;2024-01-11T07:59:50;37.53;;;16.60;;
73599;SDS011;61877;48.246;9.220;2024-01-11T08:02:15;32.30;;;14.83;;
73599;SDS011;61877;48.246;9.220;2024-01-11T08:04:42;32.83;;;14.67;;
73599;SDS011;61877;48.246;9.220;2024-01-11T08:07:07;30.38;;;14.40;;
73599;SDS011;61877;48.246;9.220;2024-01-11T08:09:34;32.63;;;14.53;;
73599;SDS011;61877;48.246;9.220;2024-01-11T08:11:59;34.15;;;14.90;;
73599;SDS011;61877;48.246;9.220;2024-01-11T08:14:25;36.97;;;15.30;;
73599;SDS011;61877;48.246;9.220;2024-01-11T08:16:50;37.53;;;16.43;;
73599;SDS011;61877;48.246;9.220;2024-01-11T08:19:15;38.13;;;17.23;;
73599;SDS011;61877;48.246;9.220;2024-01-11T08:21:42;41.27;;;18.07;;
73599;SDS011;61877;48.246;9.220;2024-01-11T08:24:07;37.75;;;16.05;;
73599;SDS011;61877;48.246;9.220;2024-01-11T08:26:33;38.77;;;16.93;;
73599;SDS011;61877;48.246;9.220;2024-01-11T08:28:59;38.67;;;17.20;;
73599;SDS011;61877;48.246;9.220;2024-01-11T08:31:24;40.97;;;17.57;;
73599;SDS011;61877;48.246;9.220;2024-01-11T08:33:50;43.63;;;18.63;;
73599;SDS011;61877;48.246;9.220;2024-01-11T08:36:15;41.97;;;17.90;;
73599;SDS011;61877;48.246;9.220;2024-01-11T08:38:43;38.40;;;17.55;;
73599;SDS011;61877;48.246;9.220;2024-01-11T08:41:09;40.10;;;17.23;;
73599;SDS011;61877;48.246;9.220;2024-01-11T08:43:34;39.55;;;18.45;;
73599;SDS011;61877;48.246;9.220;2024-01-11T08:45:59;38.87;;;18.53;;
73599;SDS011;61877;48.246;9.220;2024-01-11T08:48:25;41.13;;;18.27;;
73599;SDS011;61877;48.246;9.220;2024-01-11T08:50:52;41.35;;;17.58;;
73599;SDS011;61877;48.246;9.220;2024-01-11T08:53:18;42.93;;;18.33;;
73599;SDS011;61877;48.246;9.220;2024-01-11T08:55:44;39.47;;;17.93;;
73599;SDS011;61877;48.246;9.220;2024-01-11T08:58:10;43.90;;;18.15;;
73599;SDS011;61877;48.246;9.220;2024-01-11T09:00:35;40.67;;;18.40;;
73599;SDS011;61877;48.246;9.220;2024-01-11T09:03:01;42.17;;;18.33;;
73599;SDS011;61877;48.246;9.220;2024-01-11T09:05:29;44.17;;;18.27;;
73599;SDS011;61877;48.246;9.220;2024-01-11T09:07:54;43.33;;;17.88;;
73599;SDS011;61877;48.246;9.220;2024-01-11T09:10:20;38.13;;;17.70;;
73599;SDS011;61877;48.246;9.220;2024-01-11T09:12:46;39.63;;;18.30;;
73599;SDS011;61877;48.246;9.220;2024-01-11T09:15:12;41.80;;;19.17;;
73599;SDS011;61877;48.246;9.220;2024-01-11T09:17:37;43.87;;;20.87;;
73599;SDS011;61877;48.246;9.220;2024-01-11T09:20:03;44.20;;;20.37;;
73599;SDS011;61877;48.246;9.220;2024-01-11T09:22:28;44.97;;;20.60;;
73599;SDS011;61877;48.246;9.220;2024-01-11T09:24:54;38.80;;;17.27;;
73599;SDS011;61877;48.246;9.220;2024-01-11T09:27:19;42.40;;;18.67;;
73599;SDS011;61877;48.246;9.220;2024-01-11T09:29:46;46.33;;;19.73;;
73599;SDS011;61877;48.246;9.220;2024-01-11T09:32:12;42.30;;;20.25;;
73599;SDS011;61877;48.246;9.220;2024-01-11T09:34:37;41.67;;;19.30;;
73599;SDS011;61877;48.246;9.220;2024-01-11T09:37:03;41.37;;;19.33;;
73599;SDS011;61877;48.246;9.220;2024-01-11T09:39:29;44.63;;;20.13;;
73599;SDS011;61877;48.246;9.220;2024-01-11T09:41:57;44.63;;;20.33;;
73599;SDS011;61877;48.246;9.220;2024-01-11T09:44:23;45.28;;;19.63;;
73599;SDS011;61877;48.246;9.220;2024-01-11T09:46:51;44.65;;;19.98;;
73599;SDS011;61877;48.246;9.220;2024-01-11T09:49:18;43.60;;;19.30;;
73599;SDS011;61877;48.246;9.220;2024-01-11T09:51:48;42.40;;;19.50;;
73599;SDS011;61877;48.246;9.220;2024-01-11T09:54:14;42.10;;;18.80;;
73599;SDS011;61877;48.246;9.220;2024-01-11T09:56:41;44.35;;;18.05;;
73599;SDS011;61877;48.246;9.220;2024-01-11T09:59:08;38.92;;;17.35;;
73599;SDS011;61877;48.246;9.220;2024-01-11T10:01:34;40.30;;;17.92;;
73599;SDS011;61877;48.246;9.220;2024-01-11T10:04:01;41.00;;;18.57;;
73599;SDS011;61877;48.246;9.220;2024-01-11T10:06:28;40.33;;;18.20;;
73599;SDS011;61877;48.246;9.220;2024-01-11T10:08:59;37.83;;;18.17;;
73599;SDS011;61877;48.246;9.220;2024-01-11T10:11:24;39.07;;;17.90;;
73599;SDS011;61877;48.246;9.220;2024-01-11T10:13:55;37.63;;;18.40;;
73599;SDS011;61877;48.246;9.220;2024-01-11T10:16:21;35.70;;;17.92;;
73599;SDS011;61877;48.246;9.220;2024-01-11T10:18:46;35.13;;;16.37;;
73599;SDS011;61877;48.246;9.220;2024-01-11T10:21:13;35.10;;;16.77;;
73599;SDS011;61877;48.246;9.220;2024-01-11T10:23:38;36.38;;;18.45;;
73599;SDS011;61877;48.246;9.220;2024-01-11T10:26:04;36.47;;;18.60;;
73599;SDS011;61877;48.246;9.220;2024-01-11T10:28:29;36.80;;;18.73;;
73599;SDS011;61877;48.246;9.220;2024-01-11T10:30:55;35.53;;;18.07;;
73599;SDS011;61877;48.246;9.220;2024-01-11T10:33:21;34.67;;;18.23;;
73599;SDS011;61877;48.246;9.220;2024-01-11T10:35:46;34.67;;;18.20;;
73599;SDS011;61877;48.246;9.220;2024-01-11T10:38:13;32.10;;;16.60;;
73599;SDS011;61877;48.246;9.220;2024-01-11T10:40:39;35.50;;;19.17;;
73599;SDS011;61877;48.246;9.220;2024-01-11T10:43:05;34.90;;;17.58;;
73599;SDS011;61877;48.246;9.220;2024-01-11T10:45:33;33.97;;;17.98;;
73599;SDS011;61877;48.246;9.220;2024-01-11T10:48:00;33.33;;;17.43;;
73599;SDS011;61877;48.246;9.220;2024-01-11T10:50:28;33.95;;;18.58;;
73599;SDS011;61877;48.246;9.220;2024-01-11T10:53:02;36.55;;;19.13;;
73599;SDS011;61877;48.246;9.220;2024-01-11T10:55:29;33.83;;;18.33;;
73599;SDS011;61877;48.246;9.220;2024-01-11T10:57:58;33.33;;;17.90;;
73599;SDS011;61877;48.246;9.220;2024-01-11T11:00:27;42.22;;;21.73;;
73599;SDS011;61877;48.246;9.220;2024-01-11T11:02:53;33.83;;;18.83;;
73599;SDS011;61877;48.246;9.220;2024-01-11T11:05:20;33.78;;;18.50;;
73599;SDS011;61877;48.246;9.220;2024-01-11T11:07:46;35.00;;;18.50;;
73599;SDS011;61877;48.246;9.220;2024-01-11T11:10:13;32.50;;;18.37;;
73599;SDS011;61877;48.246;9.220;2024-01-11T11:12:40;30.88;;;16.92;;
73599;SDS011;61877;48.246;9.220;2024-01-11T11:15:09;30.55;;;17.20;;
73599;SDS011;61877;48.246;9.220;2024-01-11T11:17:36;33.83;;;17.83;;
73599;SDS011;61877;48.246;9.220;2024-01-11T11:20:01;29.63;;;16.73;;
73599;SDS011;61877;48.246;9.220;2024-01-11T11:22:26;30.07;;;16.63;;
73599;SDS011;61877;48.246;9.220;2024-01-11T11:25:02;28.47;;;16.57;;
73599;SDS011;61877;48.246;9.220;2024-01-11T11:27:28;30.13;;;17.37;;
73599;SDS011;61877;48.246;9.220;2024-01-11T11:29:54;30.03;;;16.67;;
73599;SDS011;61877;48.246;9.220;2024-01-11T11:32:25;30.83;;;16.17;;
73599;SDS011;61877;48.246;9.220;2024-01-11T11:34:59;27.45;;;15.55;;
73599;SDS011;61877;48.246;9.220;2024-01-11T11:37:25;29.53;;;16.57;;
73599;SDS011;61877;48.246;9.220;2024-01-11T11:39:50;29.50;;;16.07;;
73599;SDS011;61877;48.246;9.220;2024-01-11T11:42:16;30.55;;;16.58;;
73599;SDS011;61877;48.246;9.220;2024-01-11T11:44:47;28.67;;;16.10;;
73599;SDS011;61877;48.246;9.220;2024-01-11T11:47:21;30.42;;;16.60;;
73599;SDS011;61877;48.246;9.220;2024-01-11T11:49:57;30.67;;;17.30;;
73599;SDS011;61877;48.246;9.220;2024-01-11T11:52:28;29.88;;;16.65;;
73599;SDS011;61877;48.246;9.220;2024-01-11T11:54:54;31.88;;;17.27;;
73599;SDS011;61877;48.246;9.220;2024-01-11T11:57:21;30.77;;;16.38;;
73599;SDS011;61877;48.246;9.220;2024-01-11T11:59:46;29.07;;;15.70;;
73599;SDS011;61877;48.246;9.220;2024-01-11T12:02:15;34.83;;;17.70;;
73599;SDS011;61877;48.246;9.220;2024-01-11T12:04:47;31.13;;;15.95;;
73599;SDS011;61877;48.246;9.220;2024-01-11T12:07:12;33.97;;;16.95;;
73599;SDS011;61877;48.246;9.220;2024-01-11T12:09:38;32.50;;;15.77;;
73599;SDS011;61877;48.246;9.220;2024-01-11T12:12:03;31.13;;;16.37;;
73599;SDS011;61877;48.246;9.220;2024-01-11T12:14:29;30.35;;;14.07;;
73599;SDS011;61877;48.246;9.220;2024-01-11T12:16:55;30.13;;;14.23;;
73599;SDS011;61877;48.246;9.220;2024-01-11T12:19:22;30.70;;;15.10;;
73599;SDS011;61877;48.246;9.220;2024-01-11T12:21:49;28.65;;;13.95;;
73599;SDS011;61877;48.246;9.220;2024-01-11T12:24:15;27.42;;;14.00;;
73599;SDS011;61877;48.246;9.220;2024-01-11T12:26:40;28.40;;;14.13;;
73599;SDS011;61877;48.246;9.220;2024-01-11T12:29:07;25.80;;;12.87;;
73599;SDS011;61877;48.246;9.220;2024-01-11T12:31:32;25.73;;;13.68;;
73599;SDS011;61877;48.246;9.220;2024-01-11T12:33:57;26.73;;;14.97;;
73599;SDS011;61877;48.246;9.220;2024-01-11T12:36:23;23.90;;;12.80;;
73599;SDS011;61877;48.246;9.220;2024-01-11T12:38:50;25.37;;;13.80;;
73599;SDS011;61877;48.246;9.220;2024-01-11T12:41:15;26.45;;;14.85;;
73599;SDS011;61877;48.246;9.220;2024-01-11T12:43:41;22.63;;;13.27;;
73599;SDS011;61877;48.246;9.220;2024-01-11T12:46:29;25.05;;;14.40;;
73599;SDS011;61877;48.246;9.220;2024-01-11T12:48:56;23.13;;;14.10;;
73599;SDS011;61877;48.246;9.220;2024-01-11T12:51:21;24.08;;;14.15;;
73599;SDS011;61877;48.246;9.220;2024-01-11T12:53:47;23.77;;;13.93;;
73599;SDS011;61877;48.246;9.220;2024-01-11T12:56:14;26.08;;;15.15;;
73599;SDS011;61877;48.246;9.220;2024-01-11T12:58:40;24.13;;;15.13;;
73599;SDS011;61877;48.246;9.220;2024-01-11T13:01:06;23.50;;;14.25;;
73599;SDS011;61877;48.246;9.220;2024-01-11T13:03:32;22.92;;;14.20;;
73599;SDS011;61877;48.246;9.220;2024-01-11T13:05:57;25.07;;;14.07;;
73599;SDS011;61877;48.246;9.220;2024-01-11T13:08:23;23.00;;;14.67;;
73599;SDS011;61877;48.246;9.220;2024-01-11T13:10:50;25.17;;;13.83;;
73599;SDS011;61877;48.246;9.220;2024-01-11T13:13:20;23.88;;;14.27;;
73599;SDS011;61877;48.246;9.220;2024-01-11T13:15:46;24.10;;;14.60;;
73599;SDS011;61877;48.246;9.220;2024-01-11T13:18:12;23.27;;;14.33;;
73599;SDS011;61877;48.246;9.220;2024-01-11T13:20:37;24.58;;;14.95;;
73599;SDS011;61877;48.246;9.220;2024-01-11T13:23:12;21.63;;;13.17;;
73599;SDS011;61877;48.246;9.220;2024-01-11T13:25:38;23.63;;;13.73;;
73599;SDS011;61877;48.246;9.220;2024-01-11T13:28:04;24.67;;;13.37;;
73599;SDS011;61877;48.246;9.220;2024-01-11T13:30:31;23.93;;;13.63;;
73599;SDS011;61877;48.246;9.220;2024-01-11T13:32:56;24.33;;;12.60;;
73599;SDS011;61877;48.246;9.220;2024-01-11T13:35:22;24.20;;;12.50;;
73599;SDS011;61877;48.246;9.220;2024-01-11T13:37:47;22.70;;;11.10;;
73599;SDS011;61877;48.246;9.220;2024-01-11T13:40:13;23.83;;;10.80;;
73599;SDS011;61877;48.246;9.220;2024-01-11T13:42:38;22.37;;;10.73;;
73599;SDS011;61877;48.246;9.220;2024-01-11T13:45:04;25.77;;;12.23;;
73599;SDS011;61877;48.246;9.220;2024-01-11T13:47:31;22.83;;;11.27;;
73599;SDS011;61877;48.246;9.220;2024-01-11T13:49:56;26.90;;;11.68;;
73599;SDS011;61877;48.246;9.220;2024-01-11T13:52:22;25.90;;;12.10;;
73599;SDS011;61877;48.246;9.220;2024-01-11T13:54:47;24.73;;;11.63;;
73599;SDS011;61877;48.246;9.220;2024-01-11T13:57:12;27.98;;;12.70;;
73599;SDS011;61877;48.246;9.220;2024-01-11T13:59:38;31.67;;;13.70;;
73599;SDS011;61877;48.246;9.220;2024-01-11T14:02:03;29.67;;;12.97;;
73599;SDS011;61877;48.246;9.220;2024-01-11T14:04:30;28.73;;;12.82;;
73599;SDS011;61877;48.246;9.220;2024-01-11T14:06:56;27.70;;;12.77;;
73599;SDS011;61877;48.246;9.220;2024-01-11T14:09:21;31.40;;;13.18;;
73599;SDS011;61877;48.246;9.220;2024-01-11T14:11:46;30.20;;;12.87;;
73599;SDS011;61877;48.246;9.220;2024-01-11T14:14:12;29.13;;;12.87;;